sensor_id;sensor_type;location;lat;lon;timestamp;temperature;humidity
34279;DHT22;20538;51.528;9.942;2023-09-12T00:00:08;19.20;99.90
34279;DHT22;20538;51.528;9.942;2023-09-12T00:02:35;19.20;99.90
34279;DHT22;20538;51.528;9.942;2023-09-12T00:05:01;19.20;99.90
34279;DHT22;20538;51.528;9.942;2023-09-12T00:07:27;19.20;99.90
34279;DHT22;20538;51.528;9.942;2023-09-12T00:09:52;19.10;99.90
34279;DHT22;20538;51.528;9.942;2023-09-12T00:12:22;19.10;99.90
34279;DHT22;20538;51.528;9.942;2023-09-12T00:14:49;19.00;99.90
34279;DHT22;20538;51.528;9.942;2023-09-12T00:17:14;19.00;99.90
34279;DHT22;20538;51.528;9.942;2023-09-12T00:19:40;18.90;99.90
34279;DHT22;20538;51.528;9.942;2023-09-12T00:22:05;18.90;99.90
34279;DHT22;20538;51.528;9.942;2023-09-12T00:24:31;18.80;99.90
34279;DHT22;20538;51.528;9.942;2023-09-12T00:26:56;18.80;99.90
34279;DHT22;20538;51.528;9.942;2023-09-12T00:29:22;18.70;99.90
34279;DHT22;20538;51.528;9.942;2023-09-12T00:31:48;18.70;99.90
34279;DHT22;20538;51.528;9.942;2023-09-12T00:34:16;18.70;99.90
34279;DHT22;20538;51.528;9.942;2023-09-12T00:36:43;18.60;99.90
34279;DHT22;20538;51.528;9.942;2023-09-12T00:39:08;18.50;99.90
34279;DHT22;20538;51.528;9.942;2023-09-12T00:41:34;18.50;99.90
34279;DHT22;20538;51.528;9.942;2023-09-12T00:43:59;18.50;99.90
34279;DHT22;20538;51.528;9.942;2023-09-12T00:46:27;18.50;99.90
34279;DHT22;20538;51.528;9.942;2023-09-12T00:48:53;18.50;99.90
34279;DHT22;20538;51.528;9.942;2023-09-12T00:51:20;18.40;99.90
34279;DHT22;20538;51.528;9.942;2023-09-12T00:53:47;18.40;99.90
34279;DHT22;20538;51.528;9.942;2023-09-12T00:56:13;18.40;99.90
34279;DHT22;20538;51.528;9.942;2023-09-12T00:58:39;18.40;99.90
34279;DHT22;20538;51.528;9.942;2023-09-12T01:01:05;18.40;99.90
34279;DHT22;20538;51.528;9.942;2023-09-12T01:03:31;18.40;99.90
34279;DHT22;20538;51.528;9.942;2023-09-12T01:05:59;18.40;99.90
34279;DHT22;20538;51.528;9.942;2023-09-12T01:08:25;18.40;99.90
34279;DHT22;20538;51.528;9.942;2023-09-12T01:10:52;18.30;99.90
34279;DHT22;20538;51.528;9.942;2023-09-12T01:13:19;18.30;99.90
34279;DHT22;20538;51.528;9.942;2023-09-12T01:15:44;18.30;99.90
34279;DHT22;20538;51.528;9.942;2023-09-12T01:18:10;18.30;99.90
34279;DHT22;20538;51.528;9.942;2023-09-12T01:20:36;18.30;99.90
34279;DHT22;20538;51.528;9.942;2023-09-12T01:28:17;18.20;99.90
34279;DHT22;20538;51.528;9.942;2023-09-12T01:30:45;18.20;99.90
34279;DHT22;20538;51.528;9.942;2023-09-12T01:33:12;18.20;99.90
34279;DHT22;20538;51.528;9.942;2023-09-12T01:35:38;18.10;99.90
34279;DHT22;20538;51.528;9.942;2023-09-12T01:38:03;18.20;99.90
34279;DHT22;20538;51.528;9.942;2023-09-12T01:40:35;18.10;99.90
34279;DHT22;20538;51.528;9.942;2023-09-12T01:43:04;18.10;99.90
34279;DHT22;20538;51.528;9.942;2023-09-12T01:45:30;18.10;99.90
34279;DHT22;20538;51.528;9.942;2023-09-12T01:47:57;18.10;99.90
34279;DHT22;20538;51.528;9.942;2023-09-12T01:50:25;18.10;99.90
34279;DHT22;20538;51.528;9.942;2023-09-12T01:52:52;18.10;99.90
34279;DHT22;20538;51.528;9.942;2023-09-12T01:55:19;18.00;99.90
34279;DHT22;20538;51.528;9.942;2023-09-12T01:57:45;18.00;99.90
34279;DHT22;20538;51.528;9.942;2023-09-12T02:00:13;18.00;99.90
34279;DHT22;20538;51.528;9.942;2023-09-12T02:02:38;18.00;99.90
34279;DHT22;20538;51.528;9.942;2023-09-12T02:05:18;18.00;99.90
34279;DHT22;20538;51.528;9.942;2023-09-12T02:07:45;18.00;99.90
34279;DHT22;20538;51.528;9.942;2023-09-12T02:10:11;18.00;99.90
34279;DHT22;20538;51.528;9.942;2023-09-12T02:12:37;18.00;99.90
34279;DHT22;20538;51.528;9.942;2023-09-12T02:15:03;18.00;99.90
34279;DHT22;20538;51.528;9.942;2023-09-12T02:17:29;18.00;99.90
34279;DHT22;20538;51.528;9.942;2023-09-12T02:19:54;17.90;99.90
34279;DHT22;20538;51.528;9.942;2023-09-12T02:22:20;17.90;99.90
34279;DHT22;20538;51.528;9.942;2023-09-12T02:24:45;17.80;99.90
34279;DHT22;20538;51.528;9.942;2023-09-12T02:27:11;17.80;99.90
34279;DHT22;20538;51.528;9.942;2023-09-12T02:29:38;17.80;99.90
34279;DHT22;20538;51.528;9.942;2023-09-12T02:32:05;17.80;99.90
34279;DHT22;20538;51.528;9.942;2023-09-12T02:34:31;17.80;99.90
34279;DHT22;20538;51.528;9.942;2023-09-12T02:36:56;17.70;99.90
34279;DHT22;20538;51.528;9.942;2023-09-12T02:39:22;17.70;99.90
34279;DHT22;20538;51.528;9.942;2023-09-12T02:41:47;17.70;99.90
34279;DHT22;20538;51.528;9.942;2023-09-12T02:44:13;17.70;99.90
34279;DHT22;20538;51.528;9.942;2023-09-12T02:46:39;17.70;99.90
34279;DHT22;20538;51.528;9.942;2023-09-12T02:49:04;17.60;99.90
34279;DHT22;20538;51.528;9.942;2023-09-12T02:51:31;17.60;99.90
34279;DHT22;20538;51.528;9.942;2023-09-12T02:53:56;17.50;99.90
34279;DHT22;20538;51.528;9.942;2023-09-12T02:56:22;17.50;99.90
34279;DHT22;20538;51.528;9.942;2023-09-12T02:58:48;17.50;99.90
34279;DHT22;20538;51.528;9.942;2023-09-12T03:01:15;17.40;99.90
34279;DHT22;20538;51.528;9.942;2023-09-12T03:03:41;17.40;99.90
34279;DHT22;20538;51.528;9.942;2023-09-12T03:06:07;17.30;99.90
34279;DHT22;20538;51.528;9.942;2023-09-12T03:08:33;17.30;99.90
34279;DHT22;20538;51.528;9.942;2023-09-12T03:10:58;17.20;99.90
34279;DHT22;20538;51.528;9.942;2023-09-12T03:13:28;17.10;99.90
34279;DHT22;20538;51.528;9.942;2023-09-12T03:15:53;17.10;99.90
34279;DHT22;20538;51.528;9.942;2023-09-12T03:18:19;17.00;99.90
34279;DHT22;20538;51.528;9.942;2023-09-12T03:20:45;17.00;99.90
34279;DHT22;20538;51.528;9.942;2023-09-12T03:23:11;17.00;99.90
34279;DHT22;20538;51.528;9.942;2023-09-12T03:25:37;17.00;99.90
34279;DHT22;20538;51.528;9.942;2023-09-12T03:28:04;17.00;99.90
34279;DHT22;20538;51.528;9.942;2023-09-12T03:30:35;17.00;99.90
34279;DHT22;20538;51.528;9.942;2023-09-12T03:33:01;17.00;99.90
34279;DHT22;20538;51.528;9.942;2023-09-12T03:35:31;17.00;99.90
34279;DHT22;20538;51.528;9.942;2023-09-12T03:37:56;16.90;99.90
34279;DHT22;20538;51.528;9.942;2023-09-12T03:40:22;16.90;99.90
34279;DHT22;20538;51.528;9.942;2023-09-12T03:42:48;16.80;99.90
34279;DHT22;20538;51.528;9.942;2023-09-12T03:45:13;16.90;99.90
34279;DHT22;20538;51.528;9.942;2023-09-12T03:47:39;16.90;99.90
34279;DHT22;20538;51.528;9.942;2023-09-12T03:50:05;16.90;99.90
34279;DHT22;20538;51.528;9.942;2023-09-12T03:52:31;16.90;99.90
34279;DHT22;20538;51.528;9.942;2023-09-12T03:54:56;16.90;99.90
34279;DHT22;20538;51.528;9.942;2023-09-12T03:57:22;17.00;99.90
34279;DHT22;20538;51.528;9.942;2023-09-12T03:59:48;17.00;99.90
34279;DHT22;20538;51.528;9.942;2023-09-12T04:02:13;17.00;99.90
34279;DHT22;20538;51.528;9.942;2023-09-12T04:04:39;17.00;99.90
34279;DHT22;20538;51.528;9.942;2023-09-12T04:07:05;17.00;99.90
34279;DHT22;20538;51.528;9.942;2023-09-12T04:09:31;17.10;99.90
34279;DHT22;20538;51.528;9.942;2023-09-12T04:11:57;17.00;99.90
34279;DHT22;20538;51.528;9.942;2023-09-12T04:14:22;17.00;99.90
34279;DHT22;20538;51.528;9.942;2023-09-12T04:16:48;17.00;99.90
34279;DHT22;20538;51.528;9.942;2023-09-12T04:19:14;17.00;99.90
34279;DHT22;20538;51.528;9.942;2023-09-12T04:21:40;17.00;99.90
34279;DHT22;20538;51.528;9.942;2023-09-12T04:24:09;17.00;99.90
34279;DHT22;20538;51.528;9.942;2023-09-12T04:26:35;17.00;99.90
34279;DHT22;20538;51.528;9.942;2023-09-12T04:29:00;17.00;99.90
34279;DHT22;20538;51.528;9.942;2023-09-12T04:31:26;17.00;99.90
34279;DHT22;20538;51.528;9.942;2023-09-12T04:33:52;17.00;99.90
34279;DHT22;20538;51.528;9.942;2023-09-12T04:36:18;17.00;99.90
34279;DHT22;20538;51.528;9.942;2023-09-12T04:38:44;16.90;99.90
34279;DHT22;20538;51.528;9.942;2023-09-12T04:41:12;16.90;99.90
34279;DHT22;20538;51.528;9.942;2023-09-12T04:43:41;16.90;99.90
34279;DHT22;20538;51.528;9.942;2023-09-12T04:46:07;16.90;99.90
34279;DHT22;20538;51.528;9.942;2023-09-12T04:48:32;16.90;99.90
34279;DHT22;20538;51.528;9.942;2023-09-12T04:50:58;16.90;99.90
34279;DHT22;20538;51.528;9.942;2023-09-12T04:53:24;16.90;99.90
34279;DHT22;20538;51.528;9.942;2023-09-12T04:55:52;16.90;99.90
34279;DHT22;20538;51.528;9.942;2023-09-12T04:58:18;17.00;99.90
34279;DHT22;20538;51.528;9.942;2023-09-12T05:00:45;17.00;99.90
34279;DHT22;20538;51.528;9.942;2023-09-12T05:03:10;17.00;99.90
34279;DHT22;20538;51.528;9.942;2023-09-12T05:05:36;17.00;99.90
34279;DHT22;20538;51.528;9.942;2023-09-12T05:08:02;17.00;99.90
34279;DHT22;20538;51.528;9.942;2023-09-12T05:10:29;17.00;99.90
34279;DHT22;20538;51.528;9.942;2023-09-12T05:12:55;17.00;99.90
34279;DHT22;20538;51.528;9.942;2023-09-12T05:15:21;17.00;99.90
34279;DHT22;20538;51.528;9.942;2023-09-12T05:17:46;17.10;99.90
34279;DHT22;20538;51.528;9.942;2023-09-12T05:20:12;17.10;99.90
34279;DHT22;20538;51.528;9.942;2023-09-12T05:22:37;17.10;99.90
34279;DHT22;20538;51.528;9.942;2023-09-12T05:25:03;17.10;99.90
34279;DHT22;20538;51.528;9.942;2023-09-12T05:27:29;17.20;99.90
34279;DHT22;20538;51.528;9.942;2023-09-12T05:29:55;17.30;99.90
34279;DHT22;20538;51.528;9.942;2023-09-12T05:32:21;17.30;99.90
34279;DHT22;20538;51.528;9.942;2023-09-12T05:34:47;17.40;99.90
34279;DHT22;20538;51.528;9.942;2023-09-12T05:37:15;17.50;99.90
34279;DHT22;20538;51.528;9.942;2023-09-12T05:39:41;17.50;99.90
34279;DHT22;20538;51.528;9.942;2023-09-12T05:42:07;17.60;99.90
34279;DHT22;20538;51.528;9.942;2023-09-12T05:44:33;17.70;99.90
34279;DHT22;20538;51.528;9.942;2023-09-12T05:46:58;17.80;99.90
34279;DHT22;20538;51.528;9.942;2023-09-12T05:49:24;17.90;99.90
34279;DHT22;20538;51.528;9.942;2023-09-12T05:51:49;18.00;99.90
34279;DHT22;20538;51.528;9.942;2023-09-12T05:54:16;18.00;99.90
34279;DHT22;20538;51.528;9.942;2023-09-12T05:56:42;18.00;99.90
34279;DHT22;20538;51.528;9.942;2023-09-12T05:59:07;18.00;99.90
34279;DHT22;20538;51.528;9.942;2023-09-12T06:01:33;18.10;99.90
34279;DHT22;20538;51.528;9.942;2023-09-12T06:03:59;18.10;99.90
34279;DHT22;20538;51.528;9.942;2023-09-12T06:06:25;18.20;99.90
34279;DHT22;20538;51.528;9.942;2023-09-12T06:08:51;18.30;99.90
34279;DHT22;20538;51.528;9.942;2023-09-12T06:11:19;18.40;99.90
34279;DHT22;20538;51.528;9.942;2023-09-12T06:13:47;18.50;99.90
34279;DHT22;20538;51.528;9.942;2023-09-12T06:21:28;18.80;99.90
34279;DHT22;20538;51.528;9.942;2023-09-12T06:24:16;18.80;99.90
34279;DHT22;20538;51.528;9.942;2023-09-12T06:26:44;18.80;99.90
34279;DHT22;20538;51.528;9.942;2023-09-12T06:29:10;18.80;99.90
34279;DHT22;20538;51.528;9.942;2023-09-12T06:31:36;18.80;99.90
34279;DHT22;20538;51.528;9.942;2023-09-12T06:34:02;18.80;99.90
34279;DHT22;20538;51.528;9.942;2023-09-12T06:36:28;18.80;99.90
34279;DHT22;20538;51.528;9.942;2023-09-12T06:38:57;18.90;99.90
34279;DHT22;20538;51.528;9.942;2023-09-12T06:41:23;19.10;99.90
34279;DHT22;20538;51.528;9.942;2023-09-12T06:43:49;19.20;99.90
34279;DHT22;20538;51.528;9.942;2023-09-12T06:46:14;19.40;99.90
34279;DHT22;20538;51.528;9.942;2023-09-12T06:48:43;19.60;99.90
34279;DHT22;20538;51.528;9.942;2023-09-12T06:51:12;19.80;99.90
34279;DHT22;20538;51.528;9.942;2023-09-12T06:53:39;20.10;99.90
34279;DHT22;20538;51.528;9.942;2023-09-12T06:56:05;20.20;99.90
34279;DHT22;20538;51.528;9.942;2023-09-12T06:58:31;20.10;99.90
34279;DHT22;20538;51.528;9.942;2023-09-12T07:01:04;20.10;99.90
34279;DHT22;20538;51.528;9.942;2023-09-12T07:03:32;20.10;99.90
34279;DHT22;20538;51.528;9.942;2023-09-12T07:05:58;20.20;99.90
34279;DHT22;20538;51.528;9.942;2023-09-12T07:08:25;20.20;99.90
34279;DHT22;20538;51.528;9.942;2023-09-12T07:10:51;20.40;99.90
34279;DHT22;20538;51.528;9.942;2023-09-12T07:13:16;20.50;99.90
34279;DHT22;20538;51.528;9.942;2023-09-12T07:15:42;20.50;99.90
34279;DHT22;20538;51.528;9.942;2023-09-12T07:18:08;20.60;99.90
34279;DHT22;20538;51.528;9.942;2023-09-12T07:20:34;20.40;99.90
34279;DHT22;20538;51.528;9.942;2023-09-12T07:23:00;20.50;99.90
34279;DHT22;20538;51.528;9.942;2023-09-12T07:25:25;20.20;99.90
34279;DHT22;20538;51.528;9.942;2023-09-12T07:27:51;20.20;99.90
34279;DHT22;20538;51.528;9.942;2023-09-12T07:30:17;20.40;99.90
34279;DHT22;20538;51.528;9.942;2023-09-12T07:32:43;20.80;99.90
34279;DHT22;20538;51.528;9.942;2023-09-12T07:35:09;21.00;99.90
34279;DHT22;20538;51.528;9.942;2023-09-12T07:37:35;21.00;99.90
34279;DHT22;20538;51.528;9.942;2023-09-12T07:40:04;21.10;99.90
34279;DHT22;20538;51.528;9.942;2023-09-12T07:42:38;21.10;99.90
34279;DHT22;20538;51.528;9.942;2023-09-12T07:45:04;21.20;99.90
34279;DHT22;20538;51.528;9.942;2023-09-12T07:47:30;21.30;99.90
34279;DHT22;20538;51.528;9.942;2023-09-12T07:49:57;21.30;99.90
34279;DHT22;20538;51.528;9.942;2023-09-12T07:52:24;21.30;99.90
34279;DHT22;20538;51.528;9.942;2023-09-12T07:54:50;21.30;99.90
34279;DHT22;20538;51.528;9.942;2023-09-12T07:57:19;21.30;99.90
34279;DHT22;20538;51.528;9.942;2023-09-12T07:59:44;21.40;99.90
34279;DHT22;20538;51.528;9.942;2023-09-12T08:02:10;21.40;99.90
34279;DHT22;20538;51.528;9.942;2023-09-12T08:04:38;21.30;99.90
34279;DHT22;20538;51.528;9.942;2023-09-12T08:07:03;21.20;99.90
34279;DHT22;20538;51.528;9.942;2023-09-12T08:09:50;21.10;99.90
34279;DHT22;20538;51.528;9.942;2023-09-12T08:12:22;21.10;99.90
34279;DHT22;20538;51.528;9.942;2023-09-12T08:14:51;21.20;99.90
34279;DHT22;20538;51.528;9.942;2023-09-12T08:17:17;21.40;99.90
34279;DHT22;20538;51.528;9.942;2023-09-12T08:19:43;21.70;99.90
34279;DHT22;20538;51.528;9.942;2023-09-12T08:22:10;21.90;99.90
34279;DHT22;20538;51.528;9.942;2023-09-12T08:24:37;22.10;99.90
34279;DHT22;20538;51.528;9.942;2023-09-12T08:27:04;22.30;99.90
34279;DHT22;20538;51.528;9.942;2023-09-12T08:29:30;22.40;99.90
34279;DHT22;20538;51.528;9.942;2023-09-12T08:32:00;22.60;99.90
34279;DHT22;20538;51.528;9.942;2023-09-12T08:34:26;22.70;99.90
34279;DHT22;20538;51.528;9.942;2023-09-12T08:36:52;22.70;99.90
34279;DHT22;20538;51.528;9.942;2023-09-12T08:39:26;22.80;99.90
34279;DHT22;20538;51.528;9.942;2023-09-12T08:41:52;22.80;99.90
34279;DHT22;20538;51.528;9.942;2023-09-12T08:44:20;23.00;99.90
34279;DHT22;20538;51.528;9.942;2023-09-12T08:46:46;23.10;99.90
34279;DHT22;20538;51.528;9.942;2023-09-12T08:49:15;23.40;99.90
34279;DHT22;20538;51.528;9.942;2023-09-12T08:51:44;23.30;99.90
34279;DHT22;20538;51.528;9.942;2023-09-12T08:54:10;23.50;99.90
34279;DHT22;20538;51.528;9.942;2023-09-12T08:56:39;23.80;99.90
34279;DHT22;20538;51.528;9.942;2023-09-12T08:59:05;24.00;99.90
34279;DHT22;20538;51.528;9.942;2023-09-12T09:01:32;24.30;99.90
34279;DHT22;20538;51.528;9.942;2023-09-12T09:03:59;24.50;99.90
34279;DHT22;20538;51.528;9.942;2023-09-12T09:06:30;24.40;99.90
34279;DHT22;20538;51.528;9.942;2023-09-12T09:09:01;24.40;99.90
34279;DHT22;20538;51.528;9.942;2023-09-12T09:11:30;24.30;99.90
34279;DHT22;20538;51.528;9.942;2023-09-12T09:13:56;24.30;99.90
34279;DHT22;20538;51.528;9.942;2023-09-12T09:16:23;24.30;99.90
34279;DHT22;20538;51.528;9.942;2023-09-12T09:18:59;24.40;99.90
34279;DHT22;20538;51.528;9.942;2023-09-12T09:21:31;24.40;99.90
34279;DHT22;20538;51.528;9.942;2023-09-12T09:24:03;24.30;99.90
34279;DHT22;20538;51.528;9.942;2023-09-12T09:26:45;24.10;99.90
34279;DHT22;20538;51.528;9.942;2023-09-12T09:31:42;24.30;99.90
34279;DHT22;20538;51.528;9.942;2023-09-12T09:34:15;24.50;99.90
34279;DHT22;20538;51.528;9.942;2023-09-12T09:36:46;24.20;99.90
34279;DHT22;20538;51.528;9.942;2023-09-12T09:39:13;24.40;99.90
34279;DHT22;20538;51.528;9.942;2023-09-12T09:41:39;24.50;99.90
34279;DHT22;20538;51.528;9.942;2023-09-12T09:44:07;24.70;99.90
34279;DHT22;20538;51.528;9.942;2023-09-12T09:46:34;24.80;99.90
34279;DHT22;20538;51.528;9.942;2023-09-12T09:49:00;24.90;99.90
34279;DHT22;20538;51.528;9.942;2023-09-12T09:51:26;24.80;99.90
34279;DHT22;20538;51.528;9.942;2023-09-12T09:53:52;24.80;99.90
34279;DHT22;20538;51.528;9.942;2023-09-12T09:56:23;24.80;99.90
34279;DHT22;20538;51.528;9.942;2023-09-12T10:01:20;24.50;99.90
34279;DHT22;20538;51.528;9.942;2023-09-12T10:03:50;24.90;99.90
34279;DHT22;20538;51.528;9.942;2023-09-12T10:06:18;25.10;99.90
34279;DHT22;20538;51.528;9.942;2023-09-12T10:08:45;25.10;99.90
34279;DHT22;20538;51.528;9.942;2023-09-12T10:11:15;25.10;99.90
34279;DHT22;20538;51.528;9.942;2023-09-12T10:13:55;25.00;99.90
34279;DHT22;20538;51.528;9.942;2023-09-12T10:16:24;24.90;99.90
34279;DHT22;20538;51.528;9.942;2023-09-12T10:18:59;24.50;99.90
34279;DHT22;20538;51.528;9.942;2023-09-12T10:21:30;24.50;99.90
34279;DHT22;20538;51.528;9.942;2023-09-12T10:23:58;24.50;99.90
34279;DHT22;20538;51.528;9.942;2023-09-12T10:26:24;24.90;99.90
34279;DHT22;20538;51.528;9.942;2023-09-12T10:28:51;24.70;99.90
34279;DHT22;20538;51.528;9.942;2023-09-12T10:31:17;24.70;99.90
34279;DHT22;20538;51.528;9.942;2023-09-12T10:33:43;24.60;99.90
34279;DHT22;20538;51.528;9.942;2023-09-12T10:36:11;24.80;99.90
34279;DHT22;20538;51.528;9.942;2023-09-12T10:38:42;24.90;99.90
34279;DHT22;20538;51.528;9.942;2023-09-12T10:41:11;24.80;99.90
34279;DHT22;20538;51.528;9.942;2023-09-12T10:43:40;24.90;99.90
34279;DHT22;20538;51.528;9.942;2023-09-12T10:46:06;25.20;99.90
34279;DHT22;20538;51.528;9.942;2023-09-12T10:48:33;25.20;99.90
34279;DHT22;20538;51.528;9.942;2023-09-12T10:51:01;25.30;99.90
34279;DHT22;20538;51.528;9.942;2023-09-12T10:53:27;25.60;99.90
34279;DHT22;20538;51.528;9.942;2023-09-12T10:56:14;25.80;99.90
34279;DHT22;20538;51.528;9.942;2023-09-12T11:01:32;26.00;99.90
34279;DHT22;20538;51.528;9.942;2023-09-12T11:03:58;26.00;99.90
34279;DHT22;20538;51.528;9.942;2023-09-12T11:06:30;26.30;99.90
34279;DHT22;20538;51.528;9.942;2023-09-12T11:36:54;24.80;99.90
34279;DHT22;20538;51.528;9.942;2023-09-12T11:39:36;25.00;99.90
34279;DHT22;20538;51.528;9.942;2023-09-12T11:46:19;24.60;99.90
34279;DHT22;20538;51.528;9.942;2023-09-12T11:52:39;24.80;99.90
34279;DHT22;20538;51.528;9.942;2023-09-12T11:55:05;24.40;99.90
34279;DHT22;20538;51.528;9.942;2023-09-12T11:57:31;24.30;99.90
34279;DHT22;20538;51.528;9.942;2023-09-12T11:59:57;24.50;99.90
34279;DHT22;20538;51.528;9.942;2023-09-12T12:02:23;24.90;99.90
34279;DHT22;20538;51.528;9.942;2023-09-12T12:04:55;25.10;99.90
34279;DHT22;20538;51.528;9.942;2023-09-12T12:07:24;25.20;99.90
34279;DHT22;20538;51.528;9.942;2023-09-12T12:09:50;25.30;99.90
34279;DHT22;20538;51.528;9.942;2023-09-12T12:12:16;25.10;99.90
34279;DHT22;20538;51.528;9.942;2023-09-12T12:14:42;25.10;99.90
34279;DHT22;20538;51.528;9.942;2023-09-12T12:17:10;25.10;99.90
34279;DHT22;20538;51.528;9.942;2023-09-12T12:19:36;25.30;99.90
34279;DHT22;20538;51.528;9.942;2023-09-12T12:22:03;25.30;99.20
34279;DHT22;20538;51.528;9.942;2023-09-12T12:24:39;25.10;99.10
34279;DHT22;20538;51.528;9.942;2023-09-12T12:27:05;24.90;98.80
34279;DHT22;20538;51.528;9.942;2023-09-12T12:29:33;25.10;98.80
34279;DHT22;20538;51.528;9.942;2023-09-12T12:32:02;25.20;98.70
34279;DHT22;20538;51.528;9.942;2023-09-12T12:34:30;25.10;98.40
34279;DHT22;20538;51.528;9.942;2023-09-12T12:36:57;25.40;98.30
34279;DHT22;20538;51.528;9.942;2023-09-12T12:39:23;25.40;97.20
34279;DHT22;20538;51.528;9.942;2023-09-12T12:41:52;25.40;97.20
34279;DHT22;20538;51.528;9.942;2023-09-12T12:44:19;25.60;96.80
34279;DHT22;20538;51.528;9.942;2023-09-12T12:46:51;25.40;96.80
34279;DHT22;20538;51.528;9.942;2023-09-12T12:49:18;25.40;96.80
34279;DHT22;20538;51.528;9.942;2023-09-12T12:51:45;25.40;97.00
34279;DHT22;20538;51.528;9.942;2023-09-12T12:54:10;25.10;97.00
34279;DHT22;20538;51.528;9.942;2023-09-12T12:56:37;25.40;97.40
34279;DHT22;20538;51.528;9.942;2023-09-12T12:59:05;25.60;97.20
34279;DHT22;20538;51.528;9.942;2023-09-12T13:01:35;25.20;97.20
34279;DHT22;20538;51.528;9.942;2023-09-12T13:04:01;25.40;97.50
34279;DHT22;20538;51.528;9.942;2023-09-12T13:06:27;25.50;97.00
34279;DHT22;20538;51.528;9.942;2023-09-12T13:08:55;25.30;97.20
34279;DHT22;20538;51.528;9.942;2023-09-12T13:11:26;25.50;97.10
34279;DHT22;20538;51.528;9.942;2023-09-12T13:13:52;25.40;96.80
34279;DHT22;20538;51.528;9.942;2023-09-12T13:16:18;25.50;97.00
34279;DHT22;20538;51.528;9.942;2023-09-12T13:18:44;25.50;97.10
34279;DHT22;20538;51.528;9.942;2023-09-12T13:21:09;25.60;96.70
34279;DHT22;20538;51.528;9.942;2023-09-12T13:23:37;25.60;96.50
34279;DHT22;20538;51.528;9.942;2023-09-12T13:26:03;25.30;96.60
34279;DHT22;20538;51.528;9.942;2023-09-12T13:28:29;25.50;96.40
34279;DHT22;20538;51.528;9.942;2023-09-12T13:30:55;25.60;96.70
34279;DHT22;20538;51.528;9.942;2023-09-12T13:33:22;25.60;96.30
34279;DHT22;20538;51.528;9.942;2023-09-12T13:35:49;25.50;96.30
34279;DHT22;20538;51.528;9.942;2023-09-12T13:38:15;25.80;96.20
34279;DHT22;20538;51.528;9.942;2023-09-12T13:40:43;25.90;96.30
34279;DHT22;20538;51.528;9.942;2023-09-12T13:43:09;25.90;96.00
34279;DHT22;20538;51.528;9.942;2023-09-12T13:45:36;25.90;96.30
34279;DHT22;20538;51.528;9.942;2023-09-12T13:48:02;26.00;96.10
34279;DHT22;20538;51.528;9.942;2023-09-12T13:50:30;25.70;95.80
34279;DHT22;20538;51.528;9.942;2023-09-12T13:52:58;25.80;96.00
34279;DHT22;20538;51.528;9.942;2023-09-12T13:55:25;25.60;95.70
34279;DHT22;20538;51.528;9.942;2023-09-12T13:57:51;25.70;95.60
34279;DHT22;20538;51.528;9.942;2023-09-12T14:00:17;25.90;95.60
34279;DHT22;20538;51.528;9.942;2023-09-12T14:02:42;25.70;95.60
34279;DHT22;20538;51.528;9.942;2023-09-12T14:05:11;25.70;95.50
34279;DHT22;20538;51.528;9.942;2023-09-12T14:07:37;25.60;95.50
34279;DHT22;20538;51.528;9.942;2023-09-12T14:10:06;25.70;96.10
34279;DHT22;20538;51.528;9.942;2023-09-12T14:12:31;25.80;95.20
34279;DHT22;20538;51.528;9.942;2023-09-12T14:14:57;26.00;95.20
34279;DHT22;20538;51.528;9.942;2023-09-12T14:17:23;26.00;94.90
34279;DHT22;20538;51.528;9.942;2023-09-12T14:19:49;26.00;95.10
34279;DHT22;20538;51.528;9.942;2023-09-12T14:22:14;25.90;94.50
34279;DHT22;20538;51.528;9.942;2023-09-12T14:24:40;25.60;94.80
34279;DHT22;20538;51.528;9.942;2023-09-12T14:27:06;25.90;94.70
34279;DHT22;20538;51.528;9.942;2023-09-12T14:29:32;25.90;94.60
34279;DHT22;20538;51.528;9.942;2023-09-12T14:31:58;25.90;94.30
34279;DHT22;20538;51.528;9.942;2023-09-12T14:34:24;26.00;94.20
34279;DHT22;20538;51.528;9.942;2023-09-12T14:36:53;26.20;94.30
34279;DHT22;20538;51.528;9.942;2023-09-12T14:39:20;26.30;94.60
34279;DHT22;20538;51.528;9.942;2023-09-12T14:41:46;26.30;94.30
34279;DHT22;20538;51.528;9.942;2023-09-12T14:44:26;26.30;94.60
34279;DHT22;20538;51.528;9.942;2023-09-12T14:46:53;26.40;94.10
34279;DHT22;20538;51.528;9.942;2023-09-12T14:49:19;26.40;94.00
34279;DHT22;20538;51.528;9.942;2023-09-12T14:51:45;26.40;94.10
34279;DHT22;20538;51.528;9.942;2023-09-12T14:54:11;26.50;94.10
34279;DHT22;20538;51.528;9.942;2023-09-12T14:56:37;26.50;94.50
34279;DHT22;20538;51.528;9.942;2023-09-12T14:59:04;26.40;94.00
34279;DHT22;20538;51.528;9.942;2023-09-12T15:01:30;26.30;94.10
34279;DHT22;20538;51.528;9.942;2023-09-12T15:03:56;26.20;94.20
34279;DHT22;20538;51.528;9.942;2023-09-12T15:06:22;25.90;94.30
34279;DHT22;20538;51.528;9.942;2023-09-12T15:08:49;26.00;94.30
34279;DHT22;20538;51.528;9.942;2023-09-12T15:11:15;25.80;94.70
34279;DHT22;20538;51.528;9.942;2023-09-12T15:13:41;25.90;94.40
34279;DHT22;20538;51.528;9.942;2023-09-12T15:16:06;25.90;94.70
34279;DHT22;20538;51.528;9.942;2023-09-12T15:18:32;26.00;94.50
34279;DHT22;20538;51.528;9.942;2023-09-12T15:20:58;26.10;94.30
34279;DHT22;20538;51.528;9.942;2023-09-12T15:23:24;26.30;94.50
34279;DHT22;20538;51.528;9.942;2023-09-12T15:25:53;26.30;94.30
34279;DHT22;20538;51.528;9.942;2023-09-12T15:28:18;26.20;94.10
34279;DHT22;20538;51.528;9.942;2023-09-12T15:30:44;25.70;93.70
34279;DHT22;20538;51.528;9.942;2023-09-12T15:33:10;25.60;94.00
34279;DHT22;20538;51.528;9.942;2023-09-12T15:35:36;25.60;94.10
34279;DHT22;20538;51.528;9.942;2023-09-12T15:38:02;25.60;94.00
34279;DHT22;20538;51.528;9.942;2023-09-12T15:40:28;25.40;94.30
34279;DHT22;20538;51.528;9.942;2023-09-12T15:42:54;25.30;94.30
34279;DHT22;20538;51.528;9.942;2023-09-12T15:45:24;25.30;94.40
34279;DHT22;20538;51.528;9.942;2023-09-12T15:48:10;25.30;94.60
34279;DHT22;20538;51.528;9.942;2023-09-12T15:50:40;25.30;94.90
34279;DHT22;20538;51.528;9.942;2023-09-12T15:53:15;25.10;94.80
34279;DHT22;20538;51.528;9.942;2023-09-12T15:55:44;25.10;94.90
34279;DHT22;20538;51.528;9.942;2023-09-12T15:58:10;24.90;95.10
34279;DHT22;20538;51.528;9.942;2023-09-12T16:00:37;24.90;95.20
34279;DHT22;20538;51.528;9.942;2023-09-12T16:03:09;24.90;95.40
34279;DHT22;20538;51.528;9.942;2023-09-12T16:05:35;24.90;95.50
34279;DHT22;20538;51.528;9.942;2023-09-12T16:08:02;24.90;95.70
34279;DHT22;20538;51.528;9.942;2023-09-12T16:10:28;24.80;95.80
34279;DHT22;20538;51.528;9.942;2023-09-12T16:12:56;24.80;95.90
34279;DHT22;20538;51.528;9.942;2023-09-12T16:15:28;24.60;95.90
34279;DHT22;20538;51.528;9.942;2023-09-12T16:17:55;24.60;96.00
34279;DHT22;20538;51.528;9.942;2023-09-12T16:23:14;24.70;96.20
34279;DHT22;20538;51.528;9.942;2023-09-12T16:25:45;24.70;96.00